sensor_id;sensor_type;location;lat;lon;timestamp;P1;durP1;ratioP1;P2;durP2;ratioP2
24389;SDS011;12510;56.468;-3.004;2023-08-21T00:00:13;9.10;;;2.70;;
24389;SDS011;12510;56.468;-3.004;2023-08-21T00:02:40;9.27;;;2.80;;
24389;SDS011;12510;56.468;-3.004;2023-08-21T00:05:07;7.60;;;2.63;;
24389;SDS011;12510;56.468;-3.004;2023-08-21T00:07:33;9.68;;;3.55;;
24389;SDS011;12510;56.468;-3.004;2023-08-21T00:10:00;8.65;;;3.08;;
24389;SDS011;12510;56.468;-3.004;2023-08-21T00:12:26;9.65;;;2.65;;
24389;SDS011;12510;56.468;-3.004;2023-08-21T00:14:52;7.03;;;2.17;;
24389;SDS011;12510;56.468;-3.004;2023-08-21T00:17:19;7.63;;;2.95;;
24389;SDS011;12510;56.468;-3.004;2023-08-21T00:19:45;9.13;;;2.72;;
24389;SDS011;12510;56.468;-3.004;2023-08-21T00:22:12;7.53;;;2.45;;
24389;SDS011;12510;56.468;-3.004;2023-08-21T00:24:38;7.95;;;2.83;;
24389;SDS011;12510;56.468;-3.004;2023-08-21T00:27:05;5.75;;;2.30;;
24389;SDS011;12510;56.468;-3.004;2023-08-21T00:29:31;8.52;;;2.97;;
24389;SDS011;12510;56.468;-3.004;2023-08-21T00:31:58;9.52;;;3.30;;
24389;SDS011;12510;56.468;-3.004;2023-08-21T00:34:24;10.27;;;2.97;;
24389;SDS011;12510;56.468;-3.004;2023-08-21T00:36:51;8.55;;;2.92;;
24389;SDS011;12510;56.468;-3.004;2023-08-21T00:39:17;8.02;;;2.83;;
24389;SDS011;12510;56.468;-3.004;2023-08-21T00:41:44;7.30;;;3.03;;
24389;SDS011;12510;56.468;-3.004;2023-08-21T00:44:11;5.25;;;2.33;;
24389;SDS011;12510;56.468;-3.004;2023-08-21T00:46:38;7.88;;;3.33;;
24389;SDS011;12510;56.468;-3.004;2023-08-21T00:49:05;7.22;;;2.90;;
24389;SDS011;12510;56.468;-3.004;2023-08-21T00:51:31;5.65;;;1.77;;
24389;SDS011;12510;56.468;-3.004;2023-08-21T00:53:58;7.60;;;2.53;;
24389;SDS011;12510;56.468;-3.004;2023-08-21T00:56:24;9.15;;;3.05;;
24389;SDS011;12510;56.468;-3.004;2023-08-21T00:58:51;8.00;;;3.45;;
24389;SDS011;12510;56.468;-3.004;2023-08-21T01:01:19;9.15;;;3.17;;
24389;SDS011;12510;56.468;-3.004;2023-08-21T01:03:50;9.68;;;3.08;;
24389;SDS011;12510;56.468;-3.004;2023-08-21T01:06:16;6.75;;;2.55;;
24389;SDS011;12510;56.468;-3.004;2023-08-21T01:08:59;6.47;;;2.30;;
24389;SDS011;12510;56.468;-3.004;2023-08-21T01:11:42;9.75;;;2.67;;
24389;SDS011;12510;56.468;-3.004;2023-08-21T01:14:27;6.40;;;2.55;;
24389;SDS011;12510;56.468;-3.004;2023-08-21T01:16:58;10.80;;;3.65;;
24389;SDS011;12510;56.468;-3.004;2023-08-21T01:19:28;6.57;;;2.42;;
24389;SDS011;12510;56.468;-3.004;2023-08-21T01:21:58;7.00;;;2.50;;
24389;SDS011;12510;56.468;-3.004;2023-08-21T01:24:26;7.25;;;3.00;;
24389;SDS011;12510;56.468;-3.004;2023-08-21T01:26:52;6.35;;;2.55;;
24389;SDS011;12510;56.468;-3.004;2023-08-21T01:29:19;8.73;;;3.42;;
24389;SDS011;12510;56.468;-3.004;2023-08-21T01:31:46;6.07;;;2.38;;
24389;SDS011;12510;56.468;-3.004;2023-08-21T01:34:21;6.68;;;2.60;;
24389;SDS011;12510;56.468;-3.004;2023-08-21T01:36:49;5.53;;;2.58;;
24389;SDS011;12510;56.468;-3.004;2023-08-21T01:39:15;5.78;;;2.28;;
24389;SDS011;12510;56.468;-3.004;2023-08-21T01:41:42;5.70;;;2.33;;
24389;SDS011;12510;56.468;-3.004;2023-08-21T01:44:09;7.57;;;2.63;;
24389;SDS011;12510;56.468;-3.004;2023-08-21T01:46:35;6.60;;;2.78;;
24389;SDS011;12510;56.468;-3.004;2023-08-21T01:49:01;7.95;;;3.00;;
24389;SDS011;12510;56.468;-3.004;2023-08-21T01:51:28;5.85;;;2.10;;
24389;SDS011;12510;56.468;-3.004;2023-08-21T01:53:54;6.47;;;2.55;;
24389;SDS011;12510;56.468;-3.004;2023-08-21T01:56:21;6.75;;;2.17;;
24389;SDS011;12510;56.468;-3.004;2023-08-21T01:58:47;5.80;;;1.80;;
24389;SDS011;12510;56.468;-3.004;2023-08-21T02:01:14;8.13;;;2.78;;
24389;SDS011;12510;56.468;-3.004;2023-08-21T02:03:40;6.35;;;2.28;;
24389;SDS011;12510;56.468;-3.004;2023-08-21T02:06:07;4.90;;;2.30;;
24389;SDS011;12510;56.468;-3.004;2023-08-21T02:08:34;6.45;;;2.72;;
24389;SDS011;12510;56.468;-3.004;2023-08-21T02:11:00;4.13;;;2.00;;
24389;SDS011;12510;56.468;-3.004;2023-08-21T02:13:27;5.18;;;2.25;;
24389;SDS011;12510;56.468;-3.004;2023-08-21T02:15:53;5.68;;;2.67;;
24389;SDS011;12510;56.468;-3.004;2023-08-21T02:18:20;5.18;;;2.20;;
24389;SDS011;12510;56.468;-3.004;2023-08-21T02:20:47;7.97;;;2.50;;
24389;SDS011;12510;56.468;-3.004;2023-08-21T02:23:14;5.82;;;2.08;;
24389;SDS011;12510;56.468;-3.004;2023-08-21T02:25:41;7.40;;;2.70;;
24389;SDS011;12510;56.468;-3.004;2023-08-21T02:28:08;7.85;;;2.60;;
24389;SDS011;12510;56.468;-3.004;2023-08-21T02:30:34;6.07;;;2.20;;
24389;SDS011;12510;56.468;-3.004;2023-08-21T02:33:01;7.63;;;2.40;;
24389;SDS011;12510;56.468;-3.004;2023-08-21T02:35:27;6.50;;;2.78;;
24389;SDS011;12510;56.468;-3.004;2023-08-21T02:37:54;5.70;;;2.08;;
24389;SDS011;12510;56.468;-3.004;2023-08-21T02:40:21;9.00;;;3.38;;
24389;SDS011;12510;56.468;-3.004;2023-08-21T02:42:47;5.60;;;2.67;;
24389;SDS011;12510;56.468;-3.004;2023-08-21T02:45:14;7.05;;;3.08;;
24389;SDS011;12510;56.468;-3.004;2023-08-21T02:47:40;7.35;;;2.63;;
24389;SDS011;12510;56.468;-3.004;2023-08-21T02:50:08;6.32;;;2.47;;
24389;SDS011;12510;56.468;-3.004;2023-08-21T02:52:37;5.38;;;2.13;;
24389;SDS011;12510;56.468;-3.004;2023-08-21T02:55:04;8.98;;;3.15;;
24389;SDS011;12510;56.468;-3.004;2023-08-21T02:57:31;6.88;;;2.75;;
24389;SDS011;12510;56.468;-3.004;2023-08-21T02:59:58;6.25;;;2.70;;
24389;SDS011;12510;56.468;-3.004;2023-08-21T03:02:25;7.10;;;2.67;;
24389;SDS011;12510;56.468;-3.004;2023-08-21T03:04:52;7.30;;;3.40;;
24389;SDS011;12510;56.468;-3.004;2023-08-21T03:07:18;8.05;;;2.30;;
24389;SDS011;12510;56.468;-3.004;2023-08-21T03:09:45;7.88;;;2.75;;
24389;SDS011;12510;56.468;-3.004;2023-08-21T03:12:15;8.50;;;2.95;;
24389;SDS011;12510;56.468;-3.004;2023-08-21T03:14:42;6.07;;;2.50;;
24389;SDS011;12510;56.468;-3.004;2023-08-21T03:17:09;5.72;;;2.55;;
24389;SDS011;12510;56.468;-3.004;2023-08-21T03:19:36;9.50;;;2.45;;
24389;SDS011;12510;56.468;-3.004;2023-08-21T03:22:02;7.28;;;2.50;;
24389;SDS011;12510;56.468;-3.004;2023-08-21T03:24:29;9.07;;;2.67;;
24389;SDS011;12510;56.468;-3.004;2023-08-21T03:26:56;5.93;;;2.33;;
24389;SDS011;12510;56.468;-3.004;2023-08-21T03:29:22;6.78;;;2.17;;
24389;SDS011;12510;56.468;-3.004;2023-08-21T03:31:49;6.70;;;2.70;;
24389;SDS011;12510;56.468;-3.004;2023-08-21T03:34:16;7.20;;;2.70;;
24389;SDS011;12510;56.468;-3.004;2023-08-21T03:36:43;5.95;;;2.38;;
24389;SDS011;12510;56.468;-3.004;2023-08-21T03:39:09;6.47;;;3.05;;
24389;SDS011;12510;56.468;-3.004;2023-08-21T03:41:41;8.38;;;2.92;;
24389;SDS011;12510;56.468;-3.004;2023-08-21T03:44:08;5.65;;;2.22;;
24389;SDS011;12510;56.468;-3.004;2023-08-21T03:46:35;6.45;;;2.70;;
24389;SDS011;12510;56.468;-3.004;2023-08-21T03:49:01;8.02;;;3.05;;
24389;SDS011;12510;56.468;-3.004;2023-08-21T03:51:28;5.63;;;2.63;;
24389;SDS011;12510;56.468;-3.004;2023-08-21T03:53:55;7.68;;;2.80;;
24389;SDS011;12510;56.468;-3.004;2023-08-21T03:56:23;7.97;;;2.88;;
24389;SDS011;12510;56.468;-3.004;2023-08-21T03:58:50;7.82;;;2.58;;
24389;SDS011;12510;56.468;-3.004;2023-08-21T04:01:17;6.95;;;2.55;;
24389;SDS011;12510;56.468;-3.004;2023-08-21T04:03:43;6.15;;;2.75;;
24389;SDS011;12510;56.468;-3.004;2023-08-21T04:06:10;6.65;;;2.67;;
24389;SDS011;12510;56.468;-3.004;2023-08-21T04:08:36;7.50;;;3.03;;
24389;SDS011;12510;56.468;-3.004;2023-08-21T04:11:03;6.28;;;2.92;;
24389;SDS011;12510;56.468;-3.004;2023-08-21T04:13:30;4.93;;;2.30;;
24389;SDS011;12510;56.468;-3.004;2023-08-21T04:15:57;4.35;;;2.25;;
24389;SDS011;12510;56.468;-3.004;2023-08-21T04:18:24;7.03;;;2.25;;
24389;SDS011;12510;56.468;-3.004;2023-08-21T04:20:50;5.78;;;2.17;;
24389;SDS011;12510;56.468;-3.004;2023-08-21T04:23:17;8.43;;;2.63;;
24389;SDS011;12510;56.468;-3.004;2023-08-21T04:25:43;6.00;;;2.22;;
24389;SDS011;12510;56.468;-3.004;2023-08-21T04:28:10;7.20;;;2.95;;
24389;SDS011;12510;56.468;-3.004;2023-08-21T04:30:41;6.82;;;2.30;;
24389;SDS011;12510;56.468;-3.004;2023-08-21T04:33:09;5.70;;;2.67;;
24389;SDS011;12510;56.468;-3.004;2023-08-21T04:35:39;6.00;;;2.50;;
24389;SDS011;12510;56.468;-3.004;2023-08-21T04:38:05;7.75;;;3.30;;
24389;SDS011;12510;56.468;-3.004;2023-08-21T04:40:34;5.57;;;2.00;;
24389;SDS011;12510;56.468;-3.004;2023-08-21T04:43:01;5.40;;;2.30;;
24389;SDS011;12510;56.468;-3.004;2023-08-21T04:45:27;6.07;;;2.20;;
24389;SDS011;12510;56.468;-3.004;2023-08-21T04:47:54;7.00;;;2.72;;
24389;SDS011;12510;56.468;-3.004;2023-08-21T04:50:21;6.70;;;2.63;;
24389;SDS011;12510;56.468;-3.004;2023-08-21T04:52:49;5.65;;;2.50;;
24389;SDS011;12510;56.468;-3.004;2023-08-21T04:55:16;4.72;;;2.20;;
24389;SDS011;12510;56.468;-3.004;2023-08-21T04:57:43;6.30;;;2.70;;
24389;SDS011;12510;56.468;-3.004;2023-08-21T05:00:11;6.65;;;2.30;;
24389;SDS011;12510;56.468;-3.004;2023-08-21T05:02:41;6.75;;;2.67;;
24389;SDS011;12510;56.468;-3.004;2023-08-21T05:05:07;4.78;;;2.30;;
24389;SDS011;12510;56.468;-3.004;2023-08-21T05:07:34;5.68;;;2.13;;
24389;SDS011;12510;56.468;-3.004;2023-08-21T05:10:01;6.28;;;2.92;;
24389;SDS011;12510;56.468;-3.004;2023-08-21T05:12:31;6.32;;;2.30;;
24389;SDS011;12510;56.468;-3.004;2023-08-21T05:14:59;4.63;;;2.33;;
24389;SDS011;12510;56.468;-3.004;2023-08-21T05:17:25;3.53;;;1.80;;
24389;SDS011;12510;56.468;-3.004;2023-08-21T05:19:52;4.53;;;2.13;;
24389;SDS011;12510;56.468;-3.004;2023-08-21T05:22:19;4.95;;;1.80;;
24389;SDS011;12510;56.468;-3.004;2023-08-21T05:24:47;7.32;;;2.67;;
24389;SDS011;12510;56.468;-3.004;2023-08-21T05:27:13;6.18;;;2.05;;
24389;SDS011;12510;56.468;-3.004;2023-08-21T05:29:40;5.53;;;2.10;;
24389;SDS011;12510;56.468;-3.004;2023-08-21T05:32:06;6.50;;;2.67;;
24389;SDS011;12510;56.468;-3.004;2023-08-21T05:34:33;5.55;;;2.13;;
24389;SDS011;12510;56.468;-3.004;2023-08-21T05:36:59;5.70;;;2.15;;
24389;SDS011;12510;56.468;-3.004;2023-08-21T05:39:26;3.80;;;1.85;;
24389;SDS011;12510;56.468;-3.004;2023-08-21T05:41:52;6.30;;;2.35;;
24389;SDS011;12510;56.468;-3.004;2023-08-21T05:44:19;5.20;;;1.98;;
24389;SDS011;12510;56.468;-3.004;2023-08-21T05:46:46;7.00;;;2.10;;
24389;SDS011;12510;56.468;-3.004;2023-08-21T05:49:12;3.55;;;2.10;;
24389;SDS011;12510;56.468;-3.004;2023-08-21T05:51:39;4.97;;;2.60;;
24389;SDS011;12510;56.468;-3.004;2023-08-21T05:54:08;5.05;;;1.80;;
24389;SDS011;12510;56.468;-3.004;2023-08-21T05:56:36;6.60;;;2.70;;
24389;SDS011;12510;56.468;-3.004;2023-08-21T05:59:02;5.72;;;2.28;;
24389;SDS011;12510;56.468;-3.004;2023-08-21T06:01:29;5.28;;;2.33;;
24389;SDS011;12510;56.468;-3.004;2023-08-21T06:03:57;4.25;;;1.90;;
24389;SDS011;12510;56.468;-3.004;2023-08-21T06:06:36;5.38;;;3.22;;
24389;SDS011;12510;56.468;-3.004;2023-08-21T06:09:02;4.22;;;1.95;;
24389;SDS011;12510;56.468;-3.004;2023-08-21T06:11:29;6.95;;;2.42;;
24389;SDS011;12510;56.468;-3.004;2023-08-21T06:13:56;4.18;;;1.65;;
24389;SDS011;12510;56.468;-3.004;2023-08-21T06:16:22;3.55;;;2.03;;
24389;SDS011;12510;56.468;-3.004;2023-08-21T06:18:49;4.97;;;2.15;;
24389;SDS011;12510;56.468;-3.004;2023-08-21T06:21:16;4.47;;;1.90;;
24389;SDS011;12510;56.468;-3.004;2023-08-21T06:23:42;5.25;;;2.22;;
24389;SDS011;12510;56.468;-3.004;2023-08-21T06:26:09;5.38;;;2.40;;
24389;SDS011;12510;56.468;-3.004;2023-08-21T06:28:35;5.32;;;2.95;;
24389;SDS011;12510;56.468;-3.004;2023-08-21T06:31:02;3.90;;;1.55;;
24389;SDS011;12510;56.468;-3.004;2023-08-21T06:33:34;3.25;;;1.42;;
24389;SDS011;12510;56.468;-3.004;2023-08-21T06:36:01;4.88;;;1.77;;
24389;SDS011;12510;56.468;-3.004;2023-08-21T06:38:27;4.57;;;2.22;;
24389;SDS011;12510;56.468;-3.004;2023-08-21T06:40:54;4.03;;;1.73;;
24389;SDS011;12510;56.468;-3.004;2023-08-21T06:43:20;4.97;;;2.13;;
24389;SDS011;12510;56.468;-3.004;2023-08-21T06:45:49;4.55;;;1.67;;
24389;SDS011;12510;56.468;-3.004;2023-08-21T06:48:16;4.85;;;1.95;;
24389;SDS011;12510;56.468;-3.004;2023-08-21T06:50:44;4.13;;;1.83;;
24389;SDS011;12510;56.468;-3.004;2023-08-21T06:53:10;3.33;;;2.00;;
24389;SDS011;12510;56.468;-3.004;2023-08-21T06:55:37;4.82;;;2.28;;
24389;SDS011;12510;56.468;-3.004;2023-08-21T06:58:03;4.05;;;1.70;;
24389;SDS011;12510;56.468;-3.004;2023-08-21T07:00:30;3.95;;;1.58;;
24389;SDS011;12510;56.468;-3.004;2023-08-21T07:02:56;2.90;;;1.73;;
24389;SDS011;12510;56.468;-3.004;2023-08-21T07:05:23;2.78;;;1.42;;
24389;SDS011;12510;56.468;-3.004;2023-08-21T07:07:49;4.15;;;1.83;;
24389;SDS011;12510;56.468;-3.004;2023-08-21T07:10:15;4.28;;;1.65;;
24389;SDS011;12510;56.468;-3.004;2023-08-21T07:12:42;3.30;;;1.83;;
24389;SDS011;12510;56.468;-3.004;2023-08-21T07:15:08;5.00;;;1.80;;
24389;SDS011;12510;56.468;-3.004;2023-08-21T07:17:35;3.45;;;1.83;;
24389;SDS011;12510;56.468;-3.004;2023-08-21T07:20:02;6.35;;;1.92;;
24389;SDS011;12510;56.468;-3.004;2023-08-21T07:22:30;5.20;;;2.10;;
24389;SDS011;12510;56.468;-3.004;2023-08-21T07:24:56;2.13;;;1.13;;
24389;SDS011;12510;56.468;-3.004;2023-08-21T07:27:22;6.30;;;1.65;;
24389;SDS011;12510;56.468;-3.004;2023-08-21T07:29:49;3.72;;;1.42;;
24389;SDS011;12510;56.468;-3.004;2023-08-21T07:32:15;2.95;;;1.30;;
24389;SDS011;12510;56.468;-3.004;2023-08-21T07:34:42;2.90;;;1.38;;
24389;SDS011;12510;56.468;-3.004;2023-08-21T07:37:08;4.95;;;1.88;;
24389;SDS011;12510;56.468;-3.004;2023-08-21T07:39:35;2.47;;;1.17;;
24389;SDS011;12510;56.468;-3.004;2023-08-21T07:42:01;2.38;;;1.30;;
24389;SDS011;12510;56.468;-3.004;2023-08-21T07:44:28;3.22;;;1.05;;
24389;SDS011;12510;56.468;-3.004;2023-08-21T07:46:54;4.65;;;1.67;;
24389;SDS011;12510;56.468;-3.004;2023-08-21T07:49:21;4.55;;;1.23;;
24389;SDS011;12510;56.468;-3.004;2023-08-21T07:51:47;2.58;;;1.48;;
24389;SDS011;12510;56.468;-3.004;2023-08-21T07:54:13;2.20;;;1.25;;
24389;SDS011;12510;56.468;-3.004;2023-08-21T07:56:40;2.15;;;1.13;;
24389;SDS011;12510;56.468;-3.004;2023-08-21T07:59:06;3.05;;;1.45;;
24389;SDS011;12510;56.468;-3.004;2023-08-21T08:01:33;3.00;;;1.50;;
24389;SDS011;12510;56.468;-3.004;2023-08-21T08:03:59;2.10;;;1.20;;
24389;SDS011;12510;56.468;-3.004;2023-08-21T08:06:26;3.25;;;1.50;;
24389;SDS011;12510;56.468;-3.004;2023-08-21T08:08:52;2.55;;;1.00;;
24389;SDS011;12510;56.468;-3.004;2023-08-21T08:11:19;3.22;;;1.52;;
24389;SDS011;12510;56.468;-3.004;2023-08-21T08:13:45;2.75;;;1.20;;
24389;SDS011;12510;56.468;-3.004;2023-08-21T08:16:12;1.77;;;0.98;;
24389;SDS011;12510;56.468;-3.004;2023-08-21T08:18:38;2.88;;;1.55;;
24389;SDS011;12510;56.468;-3.004;2023-08-21T08:21:04;4.30;;;1.38;;
24389;SDS011;12510;56.468;-3.004;2023-08-21T08:23:31;2.78;;;1.15;;
24389;SDS011;12510;56.468;-3.004;2023-08-21T08:25:57;3.45;;;1.40;;
24389;SDS011;12510;56.468;-3.004;2023-08-21T08:28:24;3.97;;;1.45;;
24389;SDS011;12510;56.468;-3.004;2023-08-21T08:30:50;2.25;;;1.30;;
24389;SDS011;12510;56.468;-3.004;2023-08-21T08:33:17;1.73;;;1.05;;
24389;SDS011;12510;56.468;-3.004;2023-08-21T08:35:43;3.60;;;1.92;;
24389;SDS011;12510;56.468;-3.004;2023-08-21T08:38:10;2.90;;;1.48;;
24389;SDS011;12510;56.468;-3.004;2023-08-21T08:40:37;1.83;;;1.15;;
24389;SDS011;12510;56.468;-3.004;2023-08-21T08:43:10;2.95;;;1.13;;
24389;SDS011;12510;56.468;-3.004;2023-08-21T08:45:37;2.90;;;1.50;;
24389;SDS011;12510;56.468;-3.004;2023-08-21T08:48:07;1.92;;;1.10;;
24389;SDS011;12510;56.468;-3.004;2023-08-21T08:50:33;2.08;;;1.30;;
24389;SDS011;12510;56.468;-3.004;2023-08-21T08:53:00;1.38;;;0.85;;
24389;SDS011;12510;56.468;-3.004;2023-08-21T08:55:27;1.85;;;0.80;;
24389;SDS011;12510;56.468;-3.004;2023-08-21T08:57:54;3.33;;;1.08;;
24389;SDS011;12510;56.468;-3.004;2023-08-21T09:00:21;1.95;;;0.93;;
24389;SDS011;12510;56.468;-3.004;2023-08-21T09:02:48;2.53;;;1.00;;
24389;SDS011;12510;56.468;-3.004;2023-08-21T09:05:15;5.13;;;1.33;;
24389;SDS011;12510;56.468;-3.004;2023-08-21T09:07:42;2.88;;;1.38;;
24389;SDS011;12510;56.468;-3.004;2023-08-21T09:10:13;1.33;;;1.00;;
24389;SDS011;12510;56.468;-3.004;2023-08-21T09:12:44;2.17;;;0.93;;
24389;SDS011;12510;56.468;-3.004;2023-08-21T09:15:11;5.82;;;1.30;;
24389;SDS011;12510;56.468;-3.004;2023-08-21T09:17:38;2.33;;;0.93;;
24389;SDS011;12510;56.468;-3.004;2023-08-21T09:20:04;1.63;;;0.80;;
24389;SDS011;12510;56.468;-3.004;2023-08-21T09:22:31;1.38;;;0.85;;
24389;SDS011;12510;56.468;-3.004;2023-08-21T09:25:04;2.05;;;0.90;;
24389;SDS011;12510;56.468;-3.004;2023-08-21T09:27:33;5.30;;;1.88;;
24389;SDS011;12510;56.468;-3.004;2023-08-21T09:30:03;2.13;;;1.02;;
24389;SDS011;12510;56.468;-3.004;2023-08-21T09:32:30;2.38;;;0.90;;
24389;SDS011;12510;56.468;-3.004;2023-08-21T09:34:57;1.50;;;1.00;;
24389;SDS011;12510;56.468;-3.004;2023-08-21T09:37:27;2.53;;;0.90;;
24389;SDS011;12510;56.468;-3.004;2023-08-21T09:40:00;2.13;;;0.95;;
24389;SDS011;12510;56.468;-3.004;2023-08-21T09:42:33;1.13;;;0.75;;
24389;SDS011;12510;56.468;-3.004;2023-08-21T09:45:00;2.95;;;1.00;;
24389;SDS011;12510;56.468;-3.004;2023-08-21T09:47:26;2.42;;;0.93;;
24389;SDS011;12510;56.468;-3.004;2023-08-21T09:49:54;1.85;;;0.93;;
24389;SDS011;12510;56.468;-3.004;2023-08-21T09:52:21;3.70;;;1.00;;
24389;SDS011;12510;56.468;-3.004;2023-08-21T09:55:06;3.05;;;1.00;;
24389;SDS011;12510;56.468;-3.004;2023-08-21T09:57:33;1.77;;;1.00;;
24389;SDS011;12510;56.468;-3.004;2023-08-21T10:00:01;3.92;;;1.33;;
24389;SDS011;12510;56.468;-3.004;2023-08-21T10:02:39;2.78;;;1.30;;
24389;SDS011;12510;56.468;-3.004;2023-08-21T10:05:09;5.28;;;1.83;;
24389;SDS011;12510;56.468;-3.004;2023-08-21T10:07:36;2.35;;;1.30;;
24389;SDS011;12510;56.468;-3.004;2023-08-21T10:10:03;2.60;;;0.90;;
24389;SDS011;12510;56.468;-3.004;2023-08-21T10:12:30;7.22;;;3.15;;
24389;SDS011;12510;56.468;-3.004;2023-08-21T10:14:57;2.67;;;1.20;;
24389;SDS011;12510;56.468;-3.004;2023-08-21T10:17:23;2.47;;;1.02;;
24389;SDS011;12510;56.468;-3.004;2023-08-21T10:19:50;2.83;;;1.20;;
24389;SDS011;12510;56.468;-3.004;2023-08-21T10:27:52;3.92;;;1.23;;
24389;SDS011;12510;56.468;-3.004;2023-08-21T10:30:24;2.63;;;1.00;;
24389;SDS011;12510;56.468;-3.004;2023-08-21T10:32:55;1.95;;;0.93;;
24389;SDS011;12510;56.468;-3.004;2023-08-21T10:35:24;1.85;;;0.80;;
24389;SDS011;12510;56.468;-3.004;2023-08-21T10:38:07;3.22;;;1.10;;
24389;SDS011;12510;56.468;-3.004;2023-08-21T10:43:40;2.15;;;0.80;;
24389;SDS011;12510;56.468;-3.004;2023-08-21T10:46:09;2.10;;;1.00;;
24389;SDS011;12510;56.468;-3.004;2023-08-21T10:48:36;3.40;;;1.10;;
24389;SDS011;12510;56.468;-3.004;2023-08-21T10:51:04;1.83;;;0.80;;
24389;SDS011;12510;56.468;-3.004;2023-08-21T10:53:32;2.35;;;1.13;;
24389;SDS011;12510;56.468;-3.004;2023-08-21T10:56:05;1.77;;;1.00;;
24389;SDS011;12510;56.468;-3.004;2023-08-21T10:58:41;1.58;;;0.85;;
24389;SDS011;12510;56.468;-3.004;2023-08-21T11:01:08;3.50;;;0.90;;
24389;SDS011;12510;56.468;-3.004;2023-08-21T11:03:38;1.63;;;1.17;;
24389;SDS011;12510;56.468;-3.004;2023-08-21T11:06:06;1.35;;;0.60;;
24389;SDS011;12510;56.468;-3.004;2023-08-21T11:08:35;2.85;;;0.80;;
24389;SDS011;12510;56.468;-3.004;2023-08-21T11:11:03;3.20;;;0.80;;
24389;SDS011;12510;56.468;-3.004;2023-08-21T11:13:31;1.27;;;0.70;;
24389;SDS011;12510;56.468;-3.004;2023-08-21T11:15:59;2.28;;;0.82;;
24389;SDS011;12510;56.468;-3.004;2023-08-21T11:18:44;1.67;;;0.85;;
24389;SDS011;12510;56.468;-3.004;2023-08-21T11:21:11;1.95;;;0.57;;
24389;SDS011;12510;56.468;-3.004;2023-08-21T11:23:39;1.80;;;0.57;;
24389;SDS011;12510;56.468;-3.004;2023-08-21T11:26:09;1.38;;;0.80;;
24389;SDS011;12510;56.468;-3.004;2023-08-21T11:28:36;2.05;;;0.77;;
24389;SDS011;12510;56.468;-3.004;2023-08-21T11:31:05;2.53;;;0.65;;
24389;SDS011;12510;56.468;-3.004;2023-08-21T11:33:32;1.73;;;0.40;;
24389;SDS011;12510;56.468;-3.004;2023-08-21T11:35:59;1.98;;;0.60;;
24389;SDS011;12510;56.468;-3.004;2023-08-21T11:38:26;0.77;;;0.60;;
24389;SDS011;12510;56.468;-3.004;2023-08-21T11:43:21;4.95;;;1.00;;
24389;SDS011;12510;56.468;-3.004;2023-08-21T11:45:48;2.30;;;0.80;;
24389;SDS011;12510;56.468;-3.004;2023-08-21T11:48:15;4.35;;;1.40;;
24389;SDS011;12510;56.468;-3.004;2023-08-21T11:50:45;3.30;;;1.35;;
24389;SDS011;12510;56.468;-3.004;2023-08-21T11:53:13;1.73;;;1.20;;
24389;SDS011;12510;56.468;-3.004;2023-08-21T11:55:40;2.22;;;1.20;;
24389;SDS011;12510;56.468;-3.004;2023-08-21T11:58:06;2.65;;;1.23;;
24389;SDS011;12510;56.468;-3.004;2023-08-21T12:00:33;1.40;;;1.10;;
24389;SDS011;12510;56.468;-3.004;2023-08-21T12:03:00;1.85;;;1.25;;
24389;SDS011;12510;56.468;-3.004;2023-08-21T12:05:29;6.03;;;1.07;;
24389;SDS011;12510;56.468;-3.004;2023-08-21T12:07:56;1.15;;;0.82;;
24389;SDS011;12510;56.468;-3.004;2023-08-21T12:10:26;2.63;;;1.15;;
24389;SDS011;12510;56.468;-3.004;2023-08-21T12:12:54;1.50;;;1.02;;
24389;SDS011;12510;56.468;-3.004;2023-08-21T12:15:21;1.38;;;0.90;;
24389;SDS011;12510;56.468;-3.004;2023-08-21T12:17:48;0.95;;;0.82;;
24389;SDS011;12510;56.468;-3.004;2023-08-21T12:20:14;1.83;;;0.70;;
24389;SDS011;12510;56.468;-3.004;2023-08-21T12:22:41;3.03;;;0.93;;
24389;SDS011;12510;56.468;-3.004;2023-08-21T12:25:10;2.60;;;1.10;;
24389;SDS011;12510;56.468;-3.004;2023-08-21T12:27:37;1.95;;;0.90;;
24389;SDS011;12510;56.468;-3.004;2023-08-21T12:30:04;1.75;;;0.95;;
24389;SDS011;12510;56.468;-3.004;2023-08-21T12:32:31;3.42;;;1.60;;
24389;SDS011;12510;56.468;-3.004;2023-08-21T12:34:58;2.92;;;1.60;;
24389;SDS011;12510;56.468;-3.004;2023-08-21T12:37:24;2.63;;;1.35;;
24389;SDS011;12510;56.468;-3.004;2023-08-21T12:39:53;1.58;;;0.90;;
24389;SDS011;12510;56.468;-3.004;2023-08-21T12:42:19;2.97;;;1.33;;
24389;SDS011;12510;56.468;-3.004;2023-08-21T12:44:46;2.88;;;1.23;;
24389;SDS011;12510;56.468;-3.004;2023-08-21T12:47:12;3.30;;;1.50;;
24389;SDS011;12510;56.468;-3.004;2023-08-21T12:49:39;3.35;;;1.30;;
24389;SDS011;12510;56.468;-3.004;2023-08-21T12:52:05;2.35;;;1.40;;
24389;SDS011;12510;56.468;-3.004;2023-08-21T12:54:32;2.80;;;1.52;;
24389;SDS011;12510;56.468;-3.004;2023-08-21T12:56:59;3.40;;;1.45;;
24389;SDS011;12510;56.468;-3.004;2023-08-21T12:59:26;3.97;;;1.52;;
24389;SDS011;12510;56.468;-3.004;2023-08-21T13:01:52;11.77;;;2.45;;
24389;SDS011;12510;56.468;-3.004;2023-08-21T13:04:18;4.10;;;1.60;;
24389;SDS011;12510;56.468;-3.004;2023-08-21T13:06:45;4.78;;;1.50;;
24389;SDS011;12510;56.468;-3.004;2023-08-21T13:09:11;6.05;;;2.13;;
24389;SDS011;12510;56.468;-3.004;2023-08-21T13:11:38;3.67;;;1.52;;
24389;SDS011;12510;56.468;-3.004;2023-08-21T13:14:04;2.72;;;1.38;;
24389;SDS011;12510;56.468;-3.004;2023-08-21T13:16:31;2.28;;;1.23;;
24389;SDS011;12510;56.468;-3.004;2023-08-21T13:18:57;3.55;;;1.40;;
24389;SDS011;12510;56.468;-3.004;2023-08-21T13:21:23;8.02;;;1.63;;
24389;SDS011;12510;56.468;-3.004;2023-08-21T13:23:50;2.05;;;1.20;;
24389;SDS011;12510;56.468;-3.004;2023-08-21T13:26:16;4.07;;;1.20;;
24389;SDS011;12510;56.468;-3.004;2023-08-21T13:28:43;3.33;;;1.30;;
24389;SDS011;12510;56.468;-3.004;2023-08-21T13:31:10;4.68;;;1.30;;
24389;SDS011;12510;56.468;-3.004;2023-08-21T13:33:47;4.00;;;2.47;;
24389;SDS011;12510;56.468;-3.004;2023-08-21T13:36:14;2.80;;;1.50;;
24389;SDS011;12510;56.468;-3.004;2023-08-21T13:38:41;2.60;;;1.73;;
24389;SDS011;12510;56.468;-3.004;2023-08-21T13:41:08;3.30;;;1.40;;
24389;SDS011;12510;56.468;-3.004;2023-08-21T13:43:35;2.70;;;1.25;;
24389;SDS011;12510;56.468;-3.004;2023-08-21T13:46:02;2.67;;;1.30;;
24389;SDS011;12510;56.468;-3.004;2023-08-21T13:48:31;2.00;;;1.30;;
24389;SDS011;12510;56.468;-3.004;2023-08-21T13:50:58;1.27;;;1.00;;
24389;SDS011;12510;56.468;-3.004;2023-08-21T13:53:25;3.05;;;1.40;;
24389;SDS011;12510;56.468;-3.004;2023-08-21T13:55:51;3.15;;;1.40;;
24389;SDS011;12510;56.468;-3.004;2023-08-21T13:58:17;2.40;;;1.60;;
24389;SDS011;12510;56.468;-3.004;2023-08-21T14:00:44;2.70;;;1.20;;
24389;SDS011;12510;56.468;-3.004;2023-08-21T14:03:10;3.45;;;1.17;;
24389;SDS011;12510;56.468;-3.004;2023-08-21T14:05:37;2.17;;;1.30;;
24389;SDS011;12510;56.468;-3.004;2023-08-21T14:08:04;2.33;;;1.17;;
24389;SDS011;12510;56.468;-3.004;2023-08-21T14:10:30;2.35;;;1.20;;
24389;SDS011;12510;56.468;-3.004;2023-08-21T14:12:57;2.80;;;1.58;;
24389;SDS011;12510;56.468;-3.004;2023-08-21T14:15:23;2.47;;;0.98;;
24389;SDS011;12510;56.468;-3.004;2023-08-21T14:17:50;10.32;;;2.42;;
24389;SDS011;12510;56.468;-3.004;2023-08-21T14:20:16;3.60;;;1.25;;
24389;SDS011;12510;56.468;-3.004;2023-08-21T14:22:43;3.15;;;1.27;;
24389;SDS011;12510;56.468;-3.004;2023-08-21T14:25:09;4.57;;;1.40;;
24389;SDS011;12510;56.468;-3.004;2023-08-21T14:27:36;2.33;;;1.92;;
24389;SDS011;12510;56.468;-3.004;2023-08-21T14:30:03;1.95;;;1.30;;
24389;SDS011;12510;56.468;-3.004;2023-08-21T14:32:31;2.22;;;1.20;;
24389;SDS011;12510;56.468;-3.004;2023-08-21T14:34:57;1.95;;;1.08;;
24389;SDS011;12510;56.468;-3.004;2023-08-21T14:37:23;2.55;;;1.30;;
24389;SDS011;12510;56.468;-3.004;2023-08-21T14:39:50;2.80;;;1.38;;
24389;SDS011;12510;56.468;-3.004;2023-08-21T14:42:16;2.53;;;1.10;;
24389;SDS011;12510;56.468;-3.004;2023-08-21T14:44:43;2.67;;;1.35;;